Time;durP1;ratioP1;P1;durP2;ratioP2;P2;SDS_P1;SDS_P2;PMS_P1;PMS_P2;Temp;Humidity;BMP_temperature;BMP_pressure;BME280_temperature;BME280_humidity;BME280_pressure;Samples;Min_cycle;Max_cycle;Signal;HPM_P1;HPM_P2
2022/07/28 00:01:32;;;;;;;13.50;6.97;;;;;;;18.53;82.03;100675.47;4808668;29;20288;-55
2022/07/28 00:04:05;;;;;;;10.80;6.90;;;;;;;18.45;81.72;100674.97;4808382;29;20281;-56
2022/07/28 00:06:35;;;;;;;11.23;6.37;;;;;;;18.52;83.17;100679.06;4808066;29;20320;-55
2022/07/28 00:09:06;;;;;;;10.03;6.40;;;;;;;18.65;82.89;100675.91;4807646;29;20295;-55
2022/07/28 00:11:37;;;;;;;9.93;6.50;;;;;;;18.77;81.88;100672.75;4807857;29;20453;-55
2022/07/28 00:14:23;;;;;;;11.07;6.93;;;;;;;18.93;80.76;100668.47;4808028;29;20296;-55
2022/07/28 00:16:54;;;;;;;10.23;6.33;;;;;;;19.03;80.46;100679.53;4806580;29;20899;-51
2022/07/28 00:19:26;;;;;;;11.20;6.80;;;;;;;19.15;79.80;100683.41;4808012;29;20304;-54
2022/07/28 00:21:57;;;;;;;9.80;6.40;;;;;;;19.22;78.62;100684.84;4808137;29;20636;-53
2022/07/28 00:24:28;;;;;;;11.60;6.93;;;;;;;19.37;78.69;100678.00;4807990;29;20359;-55
2022/07/28 00:26:58;;;;;;;11.57;6.80;;;;;;;19.40;77.37;100678.69;4807822;29;20435;-55
2022/07/28 00:29:29;;;;;;;11.57;7.17;;;;;;;19.29;78.32;100670.38;4807851;29;20586;-56
2022/07/28 00:32:18;;;;;;;10.75;6.13;;;;;;;19.29;77.82;100683.63;4806775;29;20322;-51
2022/07/28 00:34:51;;;;;;;13.33;7.23;;;;;;;19.43;77.60;100676.84;4807239;29;20058;-54
2022/07/28 00:37:23;;;;;;;10.77;6.47;;;;;;;19.54;77.40;100677.19;4807066;29;20293;-53
2022/07/28 00:39:54;;;;;;;10.80;7.00;;;;;;;19.63;77.28;100683.88;4807342;29;20350;-53
2022/07/28 00:42:25;;;;;;;12.20;7.13;;;;;;;19.91;78.40;100688.72;4807123;29;20363;-54
2022/07/28 00:44:56;;;;;;;11.33;6.57;;;;;;;20.08;77.43;100686.13;4807715;29;20323;-55
2022/07/28 00:47:26;;;;;;;11.07;7.00;;;;;;;19.93;75.67;100692.16;4808358;29;20578;-54
2022/07/28 00:50:05;;;;;;;13.13;6.63;;;;;;;19.76;76.53;100646.09;4815501;29;20311;-53
2022/07/28 00:52:36;;;;;;;11.40;6.77;;;;;;;19.94;75.39;100677.97;4823475;29;20303;-54
2022/07/28 00:55:07;;;;;;;12.17;7.23;;;;;;;19.90;75.01;100681.72;4824629;29;20275;-56
2022/07/28 00:57:38;;;;;;;12.10;6.73;;;;;;;19.79;75.08;100685.75;4824248;29;20288;-52
2022/07/28 01:00:10;;;;;;;11.43;7.17;;;;;;;19.88;75.47;100688.88;4825155;29;20287;-56
2022/07/28 01:02:41;;;;;;;12.03;6.83;;;;;;;19.91;75.48;100684.28;4824808;29;20306;-52
2022/07/28 01:05:15;;;;;;;10.27;6.57;;;;;;;19.74;75.32;100682.44;4824755;29;20291;-56
2022/07/28 01:08:11;;;;;;;11.93;6.10;;;;;;;19.78;76.62;100684.00;4825559;29;20369;-56
2022/07/28 01:10:51;;;;;;;9.30;6.33;;;;;;;19.78;76.71;100686.66;4824849;29;20318;-56
2022/07/28 01:13:28;;;;;;;10.37;6.80;;;;;;;19.81;74.90;100689.16;4825996;29;20310;-55
2022/07/28 01:16:05;;;;;;;12.47;6.73;;;;;;;19.77;76.27;100682.31;4825433;29;20356;-57
2022/07/28 01:18:48;;;;;;;10.90;6.90;;;;;;;19.91;76.02;100694.03;4825420;29;20318;-54
2022/07/28 01:21:26;;;;;;;13.17;6.60;;;;;;;19.97;75.71;100693.75;4825686;29;20307;-54
2022/07/28 01:24:10;;;;;;;9.30;6.10;;;;;;;19.94;75.45;100689.44;4826081;29;20299;-56
2022/07/28 01:26:52;;;;;;;9.77;6.70;;;;;;;20.05;75.04;100686.28;4825754;29;20310;-56
2022/07/28 01:29:37;;;;;;;10.27;6.60;;;;;;;20.22;73.72;100693.41;4829376;29;20362;-55
2022/07/28 01:32:17;;;;;;;11.40;7.07;;;;;;;20.32;73.32;100697.31;4829015;29;20386;-56
2022/07/28 01:34:52;;;;;;;9.60;6.73;;;;;;;20.54;73.08;100697.06;4829034;29;20596;-56
2022/07/28 01:37:28;;;;;;;9.70;6.60;;;;;;;20.64;72.92;100669.16;4828921;29;20599;-55
2022/07/28 01:40:04;;;;;;;10.60;7.00;;;;;;;20.81;71.78;100686.00;4828899;29;20288;-56
2022/07/28 01:42:39;;;;;;;10.03;6.20;;;;;;;20.88;72.66;100682.09;4829169;29;20290;-56
2022/07/28 01:45:13;;;;;;;10.63;6.73;;;;;;;20.95;71.87;100680.84;4828719;29;20292;-56
2022/07/28 01:47:48;;;;;;;12.63;7.03;;;;;;;20.81;72.75;100691.31;4827582;29;20291;-53
2022/07/28 01:50:23;;;;;;;10.37;6.50;;;;;;;20.95;73.19;100688.81;4827772;29;20321;-57
2022/07/28 01:52:57;;;;;;;11.73;7.20;;;;;;;20.90;72.35;100685.53;4828054;29;20445;-57
2022/07/28 01:55:29;;;;;;;10.73;6.80;;;;;;;20.91;72.75;100681.91;4827559;29;20326;-56
2022/07/28 01:58:02;;;;;;;10.00;6.67;;;;;;;21.16;72.22;100677.97;4827464;29;20588;-57
2022/07/28 02:00:33;;;;;;;11.93;7.10;;;;;;;21.43;73.73;100689.78;4828266;29;20310;-56
2022/07/28 02:03:09;;;;;;;11.53;7.43;;;;;;;21.80;72.32;100682.41;4828621;29;20311;-54
2022/07/28 02:05:43;;;;;;;12.83;6.90;;;;;;;22.00;70.23;100683.94;4828011;29;20351;-56
2022/07/28 02:08:14;;;;;;;8.80;6.20;;;;;;;21.87;68.27;100678.47;4826861;29;20333;-55
2022/07/28 02:11:38;;;;;;;10.57;6.73;;;;;;;21.98;69.18;100683.16;4828756;29;20311;-55
2022/07/28 02:13:40;;;;;;;11.00;7.07;;;;;;;21.87;68.61;100689.13;4828318;29;20427;-56
2022/07/28 02:16:12;;;;;;;12.40;7.47;;;;;;;21.87;67.76;100677.63;4828205;29;20319;-56
2022/07/28 02:18:46;;;;;;;11.87;7.30;;;;;;;22.20;70.30;100681.97;4827918;29;20665;-57
2022/07/28 02:21:18;;;;;;;10.37;7.00;;;;;;;22.57;70.14;100678.00;4828541;29;20385;-56
2022/07/28 02:23:51;;;;;;;9.73;6.73;;;;;;;22.62;67.54;100670.59;4828478;29;20434;-57
2022/07/28 02:26:28;;;;;;;10.77;6.77;;;;;;;22.71;67.06;100669.16;4828384;29;20291;-55
2022/07/28 02:29:01;;;;;;;11.27;6.80;;;;;;;22.75;68.89;100655.56;4828158;29;20081;-53
2022/07/28 02:31:38;;;;;;;11.53;6.60;;;;;;;23.03;67.48;100664.56;4828208;29;20318;-58
2022/07/28 02:34:11;;;;;;;;;;;;;;;22.93;65.13;100664.22;4828473;29;20295;-56
2022/07/28 02:36:51;;;;;;;9.57;6.30;;;;;;;22.76;64.74;100661.75;4827971;29;19965;-57
2022/07/28 02:39:25;;;;;;;10.63;7.27;;;;;;;22.46;65.48;100651.13;4827180;29;20094;-56
2022/07/28 02:42:04;;;;;;;9.40;6.40;;;;;;;22.43;65.24;100669.97;4827817;29;20050;-54
2022/07/28 02:44:41;;;;;;;9.68;7.10;;;;;;;22.63;67.30;100666.97;4828229;29;20065;-56
2022/07/28 02:47:16;;;;;;;12.30;7.17;;;;;;;22.87;68.14;100643.31;4828023;29;20254;-56
2022/07/28 02:49:51;;;;;;;12.67;7.40;;;;;;;23.35;69.40;100643.03;4827670;29;20058;-55
2022/07/28 02:52:24;;;;;;;11.23;7.73;;;;;;;23.63;67.36;100636.75;4828018;29;20065;-55
2022/07/28 02:54:57;;;;;;;12.50;6.83;;;;;;;23.82;67.53;100641.78;4827849;29;20061;-55
2022/07/28 02:57:28;;;;;;;10.23;6.77;;;;;;;24.03;67.05;100645.69;4827806;29;20064;-55
2022/07/28 03:00:00;;;;;;;12.60;7.30;;;;;;;24.20;65.26;100630.38;4827256;29;20107;-56
2022/07/28 03:02:32;;;;;;;11.10;6.90;;;;;;;24.18;61.93;100632.28;4827555;29;20050;-56
2022/07/28 03:05:06;;;;;;;14.97;7.53;;;;;;;23.81;60.92;100640.06;4827810;29;20260;-54
2022/07/28 03:07:40;;;;;;;12.37;7.07;;;;;;;23.85;65.18;100636.25;4827684;29;20350;-55
2022/07/28 03:10:21;;;;;;;13.47;8.30;;;;;;;24.04;64.17;100631.41;4827639;29;20058;-54
2022/07/28 03:13:05;;;;;;;9.83;6.53;;;;;;;24.02;64.45;100611.97;4827631;29;20379;-54
2022/07/28 03:15:38;;;;;;;10.20;7.17;;;;;;;24.39;64.93;100629.97;4827541;29;20060;-56
2022/07/28 03:18:09;;;;;;;13.03;9.20;;;;;;;24.54;63.15;100629.81;4827687;29;20050;-50
2022/07/28 03:20:41;;;;;;;12.77;7.70;;;;;;;24.38;59.96;100622.91;4827559;29;20058;-55
2022/07/28 03:23:12;;;;;;;15.97;7.87;;;;;;;24.20;60.71;100630.38;4827234;29;20057;-52
2022/07/28 03:25:51;;;;;;;11.03;7.77;;;;;;;24.45;62.46;100625.09;4827002;29;20187;-56
2022/07/28 03:28:24;;;;;;;11.52;8.40;;;;;;;24.74;62.84;100622.22;4827287;29;20066;-57
2022/07/28 03:30:58;;;;;;;13.13;8.50;;;;;;;24.73;58.83;100617.84;4827092;29;20062;-55
2022/07/28 03:33:29;;;;;;;12.50;7.97;;;;;;;24.87;61.67;100620.41;4827018;29;20066;-55
2022/07/28 03:36:07;;;;;;;11.47;7.23;;;;;;;24.78;61.38;100599.66;4827480;29;20097;-54
2022/07/28 03:38:42;;;;;;;12.23;7.93;;;;;;;25.15;61.57;100629.13;4827238;29;20058;-55
2022/07/28 03:41:15;;;;;;;12.13;8.10;;;;;;;25.35;62.14;100615.19;4827337;29;20069;-55
2022/07/28 03:43:47;;;;;;;13.70;8.13;;;;;;;25.18;59.87;100618.25;4826845;29;20046;-57
2022/07/28 03:46:17;;;;;;;10.93;7.23;;;;;;;24.81;59.36;100610.16;4827302;29;20133;-56
2022/07/28 03:48:48;;;;;;;12.50;8.27;;;;;;;24.69;60.70;100616.38;4827085;29;20058;-54
2022/07/28 03:51:21;;;;;;;12.30;8.77;;;;;;;24.67;60.94;100612.94;4826876;29;20062;-54
2022/07/28 03:53:52;;;;;;;12.83;8.23;;;;;;;24.79;61.17;100620.09;4826733;29;20058;-56
2022/07/28 03:56:23;;;;;;;17.30;8.10;;;;;;;24.97;60.50;100621.47;4826733;29;20054;-55
2022/07/28 03:58:53;;;;;;;11.07;8.20;;;;;;;25.20;60.68;100621.66;4826062;29;20062;-55
2022/07/28 04:01:24;;;;;;;13.97;8.73;;;;;;;25.05;58.59;100617.38;4827218;29;20081;-55
2022/07/28 04:03:55;;;;;;;13.10;8.97;;;;;;;24.72;59.50;100608.13;4827080;29;20327;-54
2022/07/28 04:06:28;;;;;;;25.93;8.47;;;;;;;24.87;62.96;100609.72;4840557;29;20058;-56
2022/07/28 04:08:58;;;;;;;13.67;9.03;;;;;;;25.15;62.45;100607.75;4826605;29;20396;-53
2022/07/28 04:11:29;;;;;;;13.90;10.00;;;;;;;25.11;61.61;100606.25;4826608;29;20035;-55
2022/07/28 04:14:03;;;;;;;16.13;10.97;;;;;;;25.31;64.32;100616.41;4827071;29;20230;-54
2022/07/28 04:16:35;;;;;;;18.10;11.70;;;;;;;25.46;64.47;100613.56;4826541;29;20058;-57
2022/07/28 04:19:07;;;;;;;19.47;12.00;;;;;;;25.36;64.00;100622.28;4826776;29;20420;-56
2022/07/28 04:21:39;;;;;;;20.33;11.83;;;;;;;25.30;65.27;100612.00;4826639;29;20106;-55
2022/07/28 04:24:11;;;;;;;22.00;12.27;;;;;;;25.59;65.71;100601.00;4826880;29;20224;-54
2022/07/28 04:26:43;;;;;;;19.30;11.43;;;;;;;25.86;63.96;100608.84;4826617;29;20113;-56
2022/07/28 04:29:14;;;;;;;17.83;11.60;;;;;;;26.07;63.00;100617.06;4826418;29;20058;-55
2022/07/28 04:31:55;;;;;;;20.53;11.30;;;;;;;26.31;63.25;100621.50;4826275;29;20122;-55
2022/07/28 04:34:29;;;;;;;16.70;11.20;;;;;;;26.52;61.26;100621.69;4826579;29;20418;-52
2022/07/28 04:37:04;;;;;;;18.93;10.50;;;;;;;26.60;60.74;100625.50;4826348;29;20054;-57
2022/07/28 04:39:35;;;;;;;23.40;11.60;;;;;;;26.53;60.91;100624.28;4826117;29;20050;-55
2022/07/28 04:42:07;;;;;;;20.90;11.77;;;;;;;26.28;60.74;100624.44;4826139;29;20295;-55
2022/07/28 04:44:41;;;;;;;16.57;10.97;;;;;;;25.96;60.81;100627.72;4826337;29;20050;-54
2022/07/28 04:47:12;;;;;;;23.13;11.77;;;;;;;25.80;61.95;100623.47;4826291;29;20046;-52
2022/07/28 04:49:43;;;;;;;21.13;12.50;;;;;;;25.93;62.02;100619.91;4826040;29;20339;-56
2022/07/28 04:52:15;;;;;;;30.70;11.17;;;;;;;25.97;63.22;100621.41;4826279;29;20110;-55
2022/07/28 04:54:46;;;;;;;23.00;12.50;;;;;;;26.17;62.94;100625.25;4810617;29;20062;-56
2022/07/28 04:57:17;;;;;;;17.23;12.00;;;;;;;26.16;60.99;100608.34;4826101;29;20249;-56
2022/07/28 04:59:52;;;;;;;19.97;12.03;;;;;;;26.24;61.38;100627.34;4826177;29;20069;-56
2022/07/28 05:02:26;;;;;;;17.03;11.23;;;;;;;26.00;61.86;100621.16;4827565;29;20109;-55
2022/07/28 05:04:57;;;;;;;19.87;11.23;;;;;;;25.70;61.94;100630.50;4830165;29;20086;-55
2022/07/28 05:07:31;;;;;;;22.17;11.17;;;;;;;25.46;62.77;100621.59;4829448;29;20047;-56
2022/07/28 05:10:02;;;;;;;21.93;11.60;;;;;;;25.21;63.18;100612.69;4829579;29;20076;-54
2022/07/28 05:12:33;;;;;;;22.73;12.10;;;;;;;24.87;64.59;100599.03;4829338;29;20384;-55
2022/07/28 05:15:04;;;;;;;17.43;11.50;;;;;;;24.74;64.62;100612.41;4829126;29;20046;-56
2022/07/28 05:17:35;;;;;;;27.90;12.10;;;;;;;24.47;65.78;100606.31;4829184;29;20054;-57
2022/07/28 05:20:07;;;;;;;21.20;11.30;;;;;;;24.34;65.92;100614.28;4829223;29;20181;-55
2022/07/28 05:22:49;;;;;;;16.67;11.43;;;;;;;24.36;65.54;100601.66;4829111;29;20136;-56
2022/07/28 05:25:21;;;;;;;20.40;11.97;;;;;;;24.26;65.05;100604.13;4829215;29;20223;-55
2022/07/28 05:27:52;;;;;;;21.17;11.67;;;;;;;24.08;65.83;100610.69;4828593;29;20074;-54
2022/07/28 05:30:23;;;;;;;42.30;14.13;;;;;;;23.86;66.61;100612.16;4828714;29;20066;-56
2022/07/28 05:32:58;;;;;;;20.40;11.73;;;;;;;23.79;67.50;100588.59;4828417;29;20072;-55
2022/07/28 05:35:28;;;;;;;21.83;12.37;;;;;;;23.93;67.74;100601.91;4828318;29;20054;-55
2022/07/28 05:38:01;;;;;;;40.53;13.53;;;;;;;24.00;67.84;100613.03;4828291;29;20211;-55
2022/07/28 05:40:37;;;;;;;21.30;12.40;;;;;;;24.04;67.58;100609.22;4828538;29;20058;-56
2022/07/28 05:43:08;;;;;;;18.10;11.57;;;;;;;23.99;67.66;100608.63;4828250;29;20122;-56
2022/07/28 05:45:39;;;;;;;19.33;11.93;;;;;;;23.93;68.06;100607.22;4827034;29;20090;-56
2022/07/28 05:48:09;;;;;;;22.37;12.50;;;;;;;23.84;68.87;100607.88;4828303;29;20058;-55
2022/07/28 05:50:40;;;;;;;20.70;13.03;;;;;;;23.77;68.53;100611.91;4827838;29;20112;-56
2022/07/28 05:53:12;;;;;;;25.67;12.97;;;;;;;23.66;68.54;100610.75;4828404;29;20066;-54
2022/07/28 05:55:44;;;;;;;24.13;14.47;;;;;;;23.50;68.49;100609.19;4827233;29;20219;-54
2022/07/28 05:58:30;;;;;;;24.53;12.80;;;;;;;23.43;69.32;100612.22;4790442;29;20061;-56
2022/07/28 06:01:02;;;;;;;21.30;13.83;;;;;;;23.39;69.05;100604.56;4824684;29;20103;-55
2022/07/28 06:03:34;;;;;;;28.23;13.57;;;;;;;23.39;68.96;100585.88;4827477;29;20050;-57
2022/07/28 06:06:11;;;;;;;37.00;21.87;;;;;;;23.57;69.10;100606.00;4827439;29;20062;-55
2022/07/28 06:08:47;;;;;;;24.27;14.80;;;;;;;23.46;69.30;100573.84;4828438;29;20088;-55
2022/07/28 06:11:20;;;;;;;28.50;15.57;;;;;;;23.71;68.79;100601.56;4827968;29;20249;-56
2022/07/28 06:13:52;;;;;;;24.23;13.67;;;;;;;23.74;68.61;100606.72;4826495;29;20125;-57
2022/07/28 06:16:23;;;;;;;23.07;13.30;;;;;;;23.72;68.05;100608.66;4828542;29;20058;-55
2022/07/28 06:18:54;;;;;;;22.87;11.97;;;;;;;23.64;67.81;100607.34;4828474;29;20070;-53
2022/07/28 06:21:25;;;;;;;21.83;12.13;;;;;;;23.65;68.09;100603.69;4827795;29;20058;-56
2022/07/28 06:23:57;;;;;;;22.53;12.27;;;;;;;23.77;68.15;100611.91;4827455;29;20065;-57
2022/07/28 06:26:28;;;;;;;23.20;12.30;;;;;;;23.90;68.32;100607.44;4827416;29;20434;-55
2022/07/28 06:28:59;;;;;;;22.43;12.80;;;;;;;24.04;67.99;100594.03;4827681;29;20234;-55
2022/07/28 06:31:29;;;;;;;21.27;11.67;;;;;;;24.15;67.32;100605.81;4826281;29;20050;-52
2022/07/28 06:34:00;;;;;;;20.87;12.83;;;;;;;24.15;66.48;100608.47;4828030;29;20073;-54
2022/07/28 06:36:32;;;;;;;19.47;12.33;;;;;;;24.21;67.46;100605.38;4827608;29;20105;-52
2022/07/28 06:39:05;;;;;;;17.40;11.70;;;;;;;24.42;67.24;100606.59;4828183;29;20057;-54
2022/07/28 06:41:40;;;;;;;21.90;12.97;;;;;;;24.73;67.26;100608.00;4828068;29;20208;-53
2022/07/28 06:44:12;;;;;;;21.20;11.93;;;;;;;24.83;66.72;100597.50;4828421;29;20050;-56
2022/07/28 06:46:43;;;;;;;19.33;12.17;;;;;;;24.94;65.78;100600.28;4808672;29;20278;-53
2022/07/28 06:49:15;;;;;;;32.10;11.67;;;;;;;24.96;65.47;100598.38;4828066;29;20053;-56
2022/07/28 06:51:47;;;;;;;25.43;11.70;;;;;;;24.86;64.56;100597.31;4827516;29;20053;-56
2022/07/28 06:54:21;;;;;;;22.57;12.07;;;;;;;24.76;64.17;100604.25;4828362;29;20066;-53
2022/07/28 06:56:53;;;;;;;20.27;11.67;;;;;;;24.66;64.13;100596.06;4827238;29;20065;-55
2022/07/28 06:59:25;;;;;;;19.97;11.33;;;;;;;24.62;64.68;100604.38;4827486;29;20054;-54
2022/07/28 07:02:00;;;;;;;19.63;11.17;;;;;;;24.68;65.12;100609.28;4827778;29;20050;-56
2022/07/28 07:04:31;;;;;;;23.37;11.47;;;;;;;24.65;65.17;100604.16;4827610;29;20083;-55
2022/07/28 07:07:09;;;;;;;22.73;11.43;;;;;;;24.63;64.81;100606.94;4827832;29;20050;-55
2022/07/28 07:09:48;;;;;;;19.00;11.63;;;;;;;24.64;65.82;100613.16;4827785;29;20079;-54
2022/07/28 07:12:26;;;;;;;22.10;11.67;;;;;;;24.64;65.89;100603.31;4829460;29;20085;-55
2022/07/28 07:15:01;;;;;;;18.53;10.73;;;;;;;24.63;64.88;100600.75;4829245;29;20061;-54
2022/07/28 07:17:36;;;;;;;34.83;12.33;;;;;;;24.56;65.50;100610.13;4828724;29;20065;-53
2022/07/28 07:20:12;;;;;;;26.00;11.17;;;;;;;24.59;65.77;100604.56;4828547;29;20046;-57
2022/07/28 07:22:46;;;;;;;21.00;12.20;;;;;;;24.40;64.95;100605.84;4826645;29;20589;-57
2022/07/28 07:25:20;;;;;;;21.13;10.80;;;;;;;24.30;65.25;100610.09;4825556;29;20069;-56
2022/07/28 07:27:51;;;;;;;29.40;12.00;;;;;;;24.24;65.47;100605.19;4827228;29;20058;-57
2022/07/28 07:30:21;;;;;;;18.80;10.80;;;;;;;24.18;65.43;100594.91;4826112;29;20129;-53
2022/07/28 07:32:52;;;;;;;16.80;10.63;;;;;;;24.11;66.01;100590.00;4826800;29;20082;-57
2022/07/28 07:35:23;;;;;;;18.80;11.30;;;;;;;24.13;66.26;100597.88;4827153;29;20077;-56
2022/07/28 07:37:54;;;;;;;20.63;11.27;;;;;;;24.06;65.75;100594.78;4826249;29;20066;-57
2022/07/28 07:40:27;;;;;;;22.33;11.20;;;;;;;23.80;65.69;100585.00;4827140;29;20288;-54
2022/07/28 07:42:57;;;;;;;19.17;11.10;;;;;;;23.66;66.81;100592.09;4826634;29;20097;-56
2022/07/28 07:45:28;;;;;;;23.27;11.60;;;;;;;23.61;66.39;100596.00;4825749;29;20072;-55
2022/07/28 07:47:59;;;;;;;20.23;11.50;;;;;;;23.57;67.26;100589.16;4827149;29;20050;-56
2022/07/28 07:50:30;;;;;;;19.10;10.97;;;;;;;23.55;68.24;100581.25;4825709;29;20254;-54
2022/07/28 07:53:01;;;;;;;19.90;11.93;;;;;;;23.56;67.25;100584.75;4825098;29;20408;-56
2022/07/28 07:55:33;;;;;;;22.60;11.60;;;;;;;23.50;67.35;100587.84;4822425;29;20118;-57
2022/07/28 07:58:07;;;;;;;23.73;12.33;;;;;;;23.34;68.01;100590.63;4825734;29;20077;-55
2022/07/28 08:00:37;;;;;;;21.20;11.77;;;;;;;23.31;68.59;100588.16;4825895;29;20070;-55
2022/07/28 08:03:08;;;;;;;21.30;11.67;;;;;;;23.32;68.37;100589.91;4826324;29;20093;-57
2022/07/28 08:05:40;;;;;;;25.13;13.13;;;;;;;23.31;69.04;100598.84;4826923;29;20077;-55
2022/07/28 08:08:12;;;;;;;21.67;12.40;;;;;;;23.24;68.88;100598.41;4826895;29;20085;-56
2022/07/28 08:10:44;;;;;;;22.70;12.03;;;;;;;23.17;68.99;100597.91;4827013;29;20069;-56
2022/07/28 08:13:15;;;;;;;30.60;13.27;;;;;;;23.03;68.87;100601.44;4826686;29;20065;-53
2022/07/28 08:15:45;;;;;;;22.50;12.57;;;;;;;22.69;69.21;100597.34;4826362;29;20077;-55
2022/07/28 08:18:16;;;;;;;21.70;12.50;;;;;;;22.46;70.09;100601.41;4826404;29;20062;-54
2022/07/28 08:20:47;;;;;;;20.53;12.53;;;;;;;22.42;70.54;100610.53;4826148;29;20082;-53
2022/07/28 08:23:18;;;;;;;21.50;12.63;;;;;;;22.30;70.54;100612.13;4826577;29;20063;-56
2022/07/28 08:25:56;;;;;;;20.37;12.53;;;;;;;22.26;71.66;100610.59;4826437;29;20122;-56
2022/07/28 08:28:27;;;;;;;22.83;12.50;;;;;;;21.89;71.24;100596.78;4826411;29;20125;-54
2022/07/28 08:30:57;;;;;;;23.80;12.73;;;;;;;22.03;72.06;100625.22;4825823;29;20057;-56
2022/07/28 08:33:28;;;;;;;29.40;12.70;;;;;;;22.07;72.41;100631.25;4826520;29;20358;-56
2022/07/28 08:35:58;;;;;;;22.60;13.07;;;;;;;22.16;72.54;100630.69;4826020;29;20133;-53
2022/07/28 08:38:29;;;;;;;22.87;12.77;;;;;;;22.22;72.51;100641.00;4825984;29;20114;-55
2022/07/28 08:41:04;;;;;;;20.37;12.27;;;;;;;22.19;71.84;100641.16;4826168;29;20215;-55
2022/07/28 08:43:36;;;;;;;20.10;12.80;;;;;;;21.94;71.68;100616.00;4826162;29;20385;-55
2022/07/28 08:46:07;;;;;;;24.00;12.80;;;;;;;21.76;72.20;100646.28;4826198;29;20575;-54
2022/07/28 08:48:39;;;;;;;21.93;13.93;;;;;;;21.71;72.80;100641.22;4826251;29;20069;-56
2022/07/28 08:51:12;;;;;;;22.63;13.20;;;;;;;21.80;72.84;100649.66;4825260;29;20061;-56
2022/07/28 08:53:44;;;;;;;21.60;13.53;;;;;;;21.77;72.14;100650.69;4826027;29;20065;-54
2022/07/28 08:56:17;;;;;;;19.33;12.17;;;;;;;21.67;72.77;100649.50;4826522;29;20054;-57
2022/07/28 08:58:48;;;;;;;21.17;12.70;;;;;;;21.59;72.91;100657.03;4826030;29;20066;-58
2022/07/28 09:01:19;;;;;;;23.30;12.23;;;;;;;21.57;73.06;100658.91;4825777;29;20112;-57
2022/07/28 09:03:51;;;;;;;24.87;13.17;;;;;;;21.52;73.20;100661.84;4825931;29;20303;-56
2022/07/28 09:06:23;;;;;;;24.17;12.83;;;;;;;21.41;73.35;100654.44;4825947;29;20077;-56
2022/07/28 09:08:54;;;;;;;26.00;13.00;;;;;;;21.21;73.73;100663.47;4826140;29;20292;-52
2022/07/28 09:11:28;;;;;;;19.13;13.63;;;;;;;21.06;74.55;100665.16;4826058;29;20295;-55
2022/07/28 09:14:00;;;;;;;22.03;13.70;;;;;;;20.85;75.50;100658.34;4826187;29;20319;-56
2022/07/28 09:16:31;;;;;;;25.67;14.57;;;;;;;20.66;75.95;100661.94;4826017;29;21265;-55
2022/07/28 09:19:02;;;;;;;20.20;12.73;;;;;;;20.49;76.65;100669.91;4826087;29;20450;-55
2022/07/28 09:21:33;;;;;;;21.03;12.57;;;;;;;20.28;77.26;100671.84;4826061;29;20280;-56
2022/07/28 09:24:03;;;;;;;27.43;15.03;;;;;;;20.07;77.85;100673.78;4825117;29;20383;-54
2022/07/28 09:26:36;;;;;;;46.53;16.33;;;;;;;19.93;78.44;100665.66;4825911;29;20565;-56
2022/07/28 09:29:07;;;;;;;39.03;14.87;;;;;;;19.86;79.28;100653.63;4826914;29;20355;-55
2022/07/28 09:31:52;;;;;;;27.87;14.70;;;;;;;19.74;79.77;100645.31;4825644;29;20298;-56
2022/07/28 09:34:26;;;;;;;21.53;13.83;;;;;;;19.70;80.28;100657.00;4825397;29;20624;-57
2022/07/28 09:36:57;;;;;;;36.87;15.40;;;;;;;19.64;80.66;100662.56;4825511;29;20290;-55
2022/07/28 09:39:34;;;;;;;25.90;13.97;;;;;;;19.60;80.89;100648.59;4825503;29;20299;-53
2022/07/28 09:42:06;;;;;;;29.47;14.83;;;;;;;19.62;81.02;100656.50;4825447;29;20343;-57
2022/07/28 09:44:37;;;;;;;27.80;15.17;;;;;;;19.51;81.46;100658.78;4824818;29;20732;-56
2022/07/28 09:47:23;;;;;;;28.00;14.40;;;;;;;19.43;82.23;100660.94;4825233;29;20378;-52
2022/07/28 09:49:55;;;;;;;24.20;14.43;;;;;;;19.44;82.38;100662.66;4828282;29;20367;-55
2022/07/28 09:52:31;;;;;;;32.37;14.67;;;;;;;19.31;82.35;100657.91;4828981;29;20311;-55
2022/07/28 09:55:03;;;;;;;23.37;14.50;;;;;;;19.34;82.90;100673.66;4828380;29;20303;-56
2022/07/28 09:57:37;;;;;;;30.43;15.30;;;;;;;19.26;83.29;100683.78;4828454;29;20313;-56
2022/07/28 10:00:11;;;;;;;30.87;14.90;;;;;;;19.22;83.41;100676.03;4828467;29;20368;-55
2022/07/28 10:02:50;;;;;;;30.27;14.93;;;;;;;19.24;83.67;100693.56;4828709;29;20299;-54
2022/07/28 10:05:21;;;;;;;29.50;14.82;;;;;;;19.21;83.95;100692.88;4828456;29;20814;-53
2022/07/28 10:07:53;;;;;;;31.17;14.83;;;;;;;19.15;84.08;100688.72;4828284;29;20062;-53
2022/07/28 10:10:24;;;;;;;23.83;13.90;;;;;;;19.20;84.33;100685.88;4828367;29;20350;-54
2022/07/28 10:13:05;;;;;;;27.33;14.90;;;;;;;19.07;84.30;100669.63;4828274;29;20287;-57
2022/07/28 10:18:24;;;;;;;29.00;15.40;;;;;;;19.15;84.16;100694.00;4827854;29;20303;-55
2022/07/28 10:20:54;;;;;;;34.83;15.40;;;;;;;19.07;84.69;100690.81;4828263;29;20348;-53
2022/07/28 10:23:25;;;;;;;24.33;14.10;;;;;;;19.01;84.90;100691.09;4827912;29;20303;-53
2022/07/28 10:25:59;;;;;;;27.20;14.77;;;;;;;18.81;85.16;100676.09;4826188;29;20524;-53
2022/07/28 10:28:33;;;;;;;24.17;14.60;;;;;;;18.94;85.63;100701.97;4828007;29;20314;-53
2022/07/28 10:31:11;;;;;;;23.90;14.50;;;;;;;18.90;85.32;100705.69;4826942;29;20665;-54
2022/07/28 10:33:49;;;;;;;34.37;15.50;;;;;;;18.80;85.66;100699.09;4828237;29;20066;-54
2022/07/28 10:36:24;;;;;;;27.93;16.07;;;;;;;18.80;85.89;100706.16;4827825;29;20512;-54
2022/07/28 10:39:02;;;;;;;25.57;15.50;;;;;;;18.76;86.31;100718.66;4827973;29;20504;-54
2022/07/28 10:41:40;;;;;;;30.93;15.47;;;;;;;18.44;86.61;100675.00;4827608;29;20306;-54
2022/07/28 10:44:17;;;;;;;35.53;14.10;;;;;;;18.70;86.96;100713.59;4827880;29;20292;-52
2022/07/28 10:46:48;;;;;;;27.53;15.60;;;;;;;18.72;86.85;100717.03;4827792;29;20302;-54
2022/07/28 10:49:20;;;;;;;30.07;15.43;;;;;;;18.66;86.91;100728.75;4827957;29;20304;-56
2022/07/28 10:51:57;;;;;;;25.93;14.77;;;;;;;18.66;87.06;100743.78;4827630;29;20295;-50
2022/07/28 10:54:50;;;;;;;40.57;16.43;;;;;;;18.58;87.17;100748.53;4828334;29;20296;-54
2022/07/28 10:57:24;;;;;;;26.60;15.90;;;;;;;18.53;86.99;100752.22;4826984;29;20453;-54
2022/07/28 11:00:07;;;;;;;28.30;15.30;;;;;;;18.50;87.48;100755.00;4826879;29;20304;-54
2022/07/28 11:02:51;;;;;;;28.83;14.57;;;;;;;18.43;87.67;100753.53;4827545;29;20685;-53
2022/07/28 11:05:37;;;;;;;24.97;14.03;;;;;;;18.41;87.96;100755.38;4827628;29;20306;-55
2022/07/28 11:08:10;;;;;;;30.73;15.27;;;;;;;18.43;88.06;100753.53;4827455;29;20303;-53
2022/07/28 11:10:49;;;;;;;30.97;15.87;;;;;;;18.37;88.04;100745.88;4827564;29;20494;-54
2022/07/28 11:13:34;;;;;;;25.73;14.88;;;;;;;18.34;88.10;100751.25;4827485;29;21058;-52
2022/07/28 11:16:24;;;;;;;28.87;15.23;;;;;;;18.37;88.21;100753.81;4827120;29;20054;-56
2022/07/28 11:19:08;;;;;;;35.43;15.87;;;;;;;18.29;88.35;100745.28;4827525;29;20299;-54
2022/07/28 11:22:32;;;;;;;27.40;15.53;;;;;;;18.27;88.32;100755.06;4827293;29;20360;-53
2022/07/28 11:25:17;;;;;;;29.60;16.27;;;;;;;18.09;88.88;100736.38;4771287;30;20604;-53
2022/07/28 11:28:06;;;;;;;29.37;15.80;;;;;;;18.23;88.98;100762.28;4821356;29;20295;-54
2022/07/28 11:30:56;;;;;;;28.73;15.87;;;;;;;18.20;89.07;100750.97;4827077;29;20295;-53
2022/07/28 11:33:58;;;;;;;26.20;15.60;;;;;;;18.24;88.88;100764.00;4827485;29;20360;-55
2022/07/28 11:37:13;;;;;;;29.83;16.43;;;;;;;18.23;88.94;100772.00;4827081;29;20319;-50
2022/07/28 11:39:44;;;;;;;26.87;15.80;;;;;;;17.96;88.76;100737.78;4771222;30;20509;-53
2022/07/28 11:42:28;;;;;;;27.57;15.00;;;;;;;18.23;88.92;100779.94;4815961;29;20589;-51
2022/07/28 11:45:23;;;;;;;24.27;15.03;;;;;;;18.19;88.95;100792.41;4827125;29;20580;-54
2022/07/28 11:48:15;;;;;;;30.77;14.97;;;;;;;18.19;89.48;100788.91;4824375;29;20824;-53